Time;durP1;ratioP1;P1;durP2;ratioP2;P2;SDS_P1;SDS_P2;PMS_P1;PMS_P2;Temp;Humidity;BMP_temperature;BMP_pressure;BME280_temperature;BME280_humidity;BME280_pressure;Samples;Min_cycle;Max_cycle;Signal;HPM_P1;HPM_P2
2022/12/22 03:26:04;;;;;;;57.47;2.70;;;;;;;;;;5013712;28;20854;-73
2022/12/22 03:28:31;;;;;;;58.70;3.10;;;;;;;;;;5013280;28;20456;-73
2022/12/22 03:30:59;;;;;;;58.47;3.13;;;;;;;;;;5013525;28;20860;-73
2022/12/22 03:33:28;;;;;;;58.00;2.80;;;;;;;;;;5013842;28;20450;-73
2022/12/22 03:35:55;;;;;;;58.83;2.97;;;;;;;;;;5013684;28;20947;-73
2022/12/22 03:38:22;;;;;;;61.10;3.00;;;;;;;;;;5013463;28;20465;-73
2022/12/22 03:40:50;;;;;;;57.70;2.80;;;;;;;;;;5012582;28;20486;-73
2022/12/22 03:49:08;;;;;;;59.20;3.13;;;;;;;;;;5012622;28;20433;-73
2022/12/22 03:51:36;;;;;;;58.67;3.00;;;;;;;;;;5012639;28;20470;-73
2022/12/22 03:54:03;;;;;;;58.50;3.50;;;;;;;;;;5013383;28;20449;-73
2022/12/22 03:56:30;;;;;;;58.97;3.77;;;;;;;;;;5013455;28;20451;-73
2022/12/22 03:58:58;;;;;;;57.80;3.00;;;;;;;;;;5012478;28;20454;-73
2022/12/22 04:01:25;;;;;;;58.27;2.83;;;;;;;;;;5012969;28;20476;-73
2022/12/22 04:03:53;;;;;;;59.67;3.03;;;;;;;;;;5012945;28;20473;-73
2022/12/22 04:06:20;;;;;;;58.77;2.70;;;;;;;;;;5013240;28;20508;-73
2022/12/22 04:08:48;;;;;;;57.53;2.43;;;;;;;;;;5012397;28;20454;-73
2022/12/22 04:14:01;;;;;;;58.10;2.80;;;;;;;;;;5013112;28;20426;-73
2022/12/22 04:16:28;;;;;;;57.77;2.47;;;;;;;;;;5013251;28;20452;-73
2022/12/22 04:18:57;;;;;;;57.50;2.50;;;;;;;;;;5012120;28;20464;-73
2022/12/22 04:21:24;;;;;;;57.93;2.50;;;;;;;;;;5012732;28;20473;-73
2022/12/22 04:23:51;;;;;;;58.20;2.97;;;;;;;;;;5012946;28;20454;-73
2022/12/22 04:26:18;;;;;;;57.87;2.80;;;;;;;;;;5012722;28;20486;-73
2022/12/22 04:28:45;;;;;;;57.50;2.40;;;;;;;;;;5011865;28;20460;-73
2022/12/22 04:31:12;;;;;;;58.57;2.80;;;;;;;;;;5012643;28;20557;-73
2022/12/22 04:33:40;;;;;;;58.87;2.80;;;;;;;;;;5012717;28;20450;-73
2022/12/22 04:36:09;;;;;;;57.47;2.50;;;;;;;;;;5012672;28;20451;-73
2022/12/22 04:38:37;;;;;;;59.90;2.70;;;;;;;;;;5011736;28;20465;-73
2022/12/22 04:41:04;;;;;;;58.30;2.77;;;;;;;;;;5013004;28;20500;-73
2022/12/22 04:43:31;;;;;;;59.67;2.73;;;;;;;;;;5012389;28;20453;-73
2022/12/22 04:45:58;;;;;;;58.37;2.87;;;;;;;;;;5012499;28;20868;-73
2022/12/22 04:48:26;;;;;;;59.53;3.10;;;;;;;;;;5012383;28;20457;-73
2022/12/22 04:50:54;;;;;;;57.90;2.60;;;;;;;;;;5011883;28;20469;-73
2022/12/22 04:53:22;;;;;;;58.70;2.90;;;;;;;;;;5012411;28;20829;-73
2022/12/22 04:55:50;;;;;;;58.67;3.27;;;;;;;;;;5012213;28;20450;-73
2022/12/22 04:58:17;;;;;;;60.07;2.80;;;;;;;;;;5012362;28;20950;-73
2022/12/22 05:00:45;;;;;;;61.60;3.40;;;;;;;;;;5011663;28;20474;-73
2022/12/22 05:03:12;;;;;;;58.37;3.13;;;;;;;;;;5012144;28;20965;-73
2022/12/22 05:05:39;;;;;;;58.77;3.30;;;;;;;;;;5012142;28;20525;-73
2022/12/22 05:08:06;;;;;;;60.03;2.80;;;;;;;;;;5011946;28;20446;-73
2022/12/22 05:10:35;;;;;;;60.43;3.30;;;;;;;;;;5011244;28;21016;-73
2022/12/22 05:13:02;;;;;;;59.43;2.90;;;;;;;;;;5012209;28;20446;-73
2022/12/22 05:15:30;;;;;;;58.57;3.20;;;;;;;;;;5012300;28;20457;-73
2022/12/22 05:17:57;;;;;;;60.83;3.20;;;;;;;;;;5012073;28;20457;-73
2022/12/22 05:20:25;;;;;;;59.70;3.00;;;;;;;;;;5011906;28;20975;-73
2022/12/22 05:22:52;;;;;;;60.20;2.90;;;;;;;;;;5011810;28;20457;-73
2022/12/22 05:25:20;;;;;;;58.20;2.87;;;;;;;;;;5012194;28;20834;-73
2022/12/22 05:27:49;;;;;;;59.60;3.20;;;;;;;;;;5012089;28;20475;-73
2022/12/22 05:30:17;;;;;;;60.27;3.37;;;;;;;;;;5010916;28;20482;-73
2022/12/22 05:32:44;;;;;;;59.67;3.43;;;;;;;;;;5011804;28;20461;-73
2022/12/22 05:35:12;;;;;;;59.47;3.10;;;;;;;;;;5011879;28;20454;-73
2022/12/22 05:37:39;;;;;;;60.57;3.90;;;;;;;;;;5012035;28;20464;-73
2022/12/22 05:40:07;;;;;;;58.47;3.03;;;;;;;;;;5011026;28;20450;-73
2022/12/22 05:42:36;;;;;;;59.27;3.30;;;;;;;;;;5011815;28;20500;-73
2022/12/22 05:45:07;;;;;;;61.10;3.50;;;;;;;;;;5012001;28;20460;-73
2022/12/22 05:47:34;;;;;;;62.83;3.87;;;;;;;;;;5011705;28;20969;-73
2022/12/22 05:50:01;;;;;;;58.77;3.00;;;;;;;;;;5010791;28;20965;-73
2022/12/22 05:52:28;;;;;;;60.53;3.53;;;;;;;;;;5011902;28;20458;-73
2022/12/22 05:54:55;;;;;;;59.87;3.50;;;;;;;;;;5011681;28;20461;-73
2022/12/22 05:57:22;;;;;;;60.00;3.20;;;;;;;;;;5011530;28;21001;-73
2022/12/22 05:59:50;;;;;;;59.80;3.23;;;;;;;;;;5010641;28;20457;-74
2022/12/22 06:02:18;;;;;;;58.97;3.30;;;;;;;;;;5011634;28;20529;-73
2022/12/22 06:04:45;;;;;;;58.70;2.80;;;;;;;;;;5011472;28;20909;-73
2022/12/22 06:07:12;;;;;;;59.40;3.10;;;;;;;;;;5011568;28;21024;-73
2022/12/22 06:09:39;;;;;;;59.67;3.60;;;;;;;;;;5010996;28;20450;-73
2022/12/22 06:12:07;;;;;;;61.23;3.40;;;;;;;;;;5011555;28;20470;-73
2022/12/22 06:14:34;;;;;;;59.60;3.53;;;;;;;;;;5014517;28;20450;-74
2022/12/22 06:17:01;;;;;;;62.30;3.20;;;;;;;;;;5015085;28;20816;-73
2022/12/22 06:19:30;;;;;;;59.87;3.60;;;;;;;;;;5014579;28;20530;-75
2022/12/22 06:21:57;;;;;;;60.70;3.13;;;;;;;;;;5015151;28;20476;-73
2022/12/22 06:24:24;;;;;;;61.27;4.00;;;;;;;;;;5015129;28;20446;-73
2022/12/22 06:26:51;;;;;;;59.90;3.20;;;;;;;;;;5015126;28;20492;-73
2022/12/22 06:29:18;;;;;;;60.03;3.20;;;;;;;;;;5014105;28;20951;-73
2022/12/22 06:31:46;;;;;;;62.93;3.60;;;;;;;;;;5014761;28;20528;-73
2022/12/22 06:34:16;;;;;;;59.90;3.13;;;;;;;;;;5014970;28;20454;-74
2022/12/22 06:36:45;;;;;;;60.57;3.67;;;;;;;;;;5015265;28;20452;-74
2022/12/22 06:39:12;;;;;;;59.40;2.67;;;;;;;;;;5013967;28;20986;-73
2022/12/22 06:44:24;;;;;;;69.37;3.90;;;;;;;;;;5014692;28;20429;-73
2022/12/22 06:46:52;;;;;;;62.43;3.80;;;;;;;;;;5014697;28;20485;-73
2022/12/22 06:49:19;;;;;;;61.60;3.60;;;;;;;;;;5013946;28;20446;-74
2022/12/22 06:51:47;;;;;;;65.00;4.23;;;;;;;;;;5014587;28;20478;-74
2022/12/22 06:54:15;;;;;;;59.03;3.60;;;;;;;;;;5014259;28;20457;-74
2022/12/22 06:56:42;;;;;;;64.20;3.90;;;;;;;;;;5014196;28;20446;-74
2022/12/22 06:59:09;;;;;;;60.77;4.00;;;;;;;;;;5013809;28;20476;-74
2022/12/22 07:01:36;;;;;;;61.40;3.13;;;;;;;;;;5014548;28;20488;-74
2022/12/22 07:04:04;;;;;;;61.10;3.60;;;;;;;;;;5014311;28;20492;-75
2022/12/22 07:06:31;;;;;;;60.97;3.73;;;;;;;;;;5014257;28;20488;-75
2022/12/22 07:08:59;;;;;;;61.20;3.47;;;;;;;;;;5013486;28;20450;-75
2022/12/22 07:11:27;;;;;;;64.33;3.60;;;;;;;;;;5013883;28;20474;-74
2022/12/22 07:13:54;;;;;;;61.77;3.93;;;;;;;;;;5014470;28;21018;-74
2022/12/22 07:16:21;;;;;;;59.27;3.30;;;;;;;;;;5014149;28;20458;-74
2022/12/22 07:18:48;;;;;;;60.07;3.57;;;;;;;;;;5013249;28;20985;-74
2022/12/22 07:21:15;;;;;;;59.87;3.63;;;;;;;;;;5013888;28;20569;-75
2022/12/22 07:23:42;;;;;;;61.40;3.77;;;;;;;;;;5014245;28;20814;-74
2022/12/22 07:26:11;;;;;;;59.80;3.43;;;;;;;;;;5012975;28;20545;-74
2022/12/22 07:28:39;;;;;;;63.17;3.83;;;;;;;;;;5013096;28;20458;-74
2022/12/22 07:31:06;;;;;;;61.10;3.30;;;;;;;;;;5013637;28;20485;-75
2022/12/22 07:33:34;;;;;;;60.17;3.17;;;;;;;;;;5013861;28;20450;-75
2022/12/22 07:36:02;;;;;;;62.17;4.40;;;;;;;;;;5013607;28;20525;-74
2022/12/22 07:38:30;;;;;;;66.73;4.40;;;;;;;;;;5013174;28;20454;-74
2022/12/22 07:40:58;;;;;;;61.67;4.00;;;;;;;;;;5013466;28;20466;-74
2022/12/22 07:43:25;;;;;;;65.40;3.63;;;;;;;;;;5013602;28;20485;-74
2022/12/22 07:45:53;;;;;;;66.37;3.53;;;;;;;;;;5013417;28;20450;-74
2022/12/22 07:51:06;;;;;;;63.50;4.00;;;;;;;;;;5013028;28;20441;-74
2022/12/22 07:53:34;;;;;;;60.57;3.50;;;;;;;;;;5013494;28;20450;-74
2022/12/22 07:56:02;;;;;;;60.40;3.50;;;;;;;;;;5013185;28;20450;-74
2022/12/22 07:58:30;;;;;;;64.43;4.10;;;;;;;;;;5012977;28;20450;-74
2022/12/22 08:00:58;;;;;;;61.07;4.10;;;;;;;;;;5012891;28;20466;-74
2022/12/22 08:03:25;;;;;;;60.37;3.70;;;;;;;;;;5012996;28;20481;-74
2022/12/22 08:05:52;;;;;;;63.30;3.83;;;;;;;;;;5013169;28;20445;-75
2022/12/22 08:08:20;;;;;;;62.33;4.07;;;;;;;;;;5013080;28;20454;-75
2022/12/22 08:10:47;;;;;;;63.00;4.13;;;;;;;;;;5012523;28;20466;-74
2022/12/22 08:13:14;;;;;;;63.13;3.33;;;;;;;;;;5013213;28;20942;-75
2022/12/22 08:15:42;;;;;;;60.33;3.33;;;;;;;;;;5012894;28;20980;-74
2022/12/22 08:18:09;;;;;;;60.27;3.60;;;;;;;;;;5013219;28;20454;-74
2022/12/22 08:20:36;;;;;;;61.70;3.67;;;;;;;;;;5012334;28;20560;-74
2022/12/22 08:23:04;;;;;;;61.10;3.70;;;;;;;;;;5012860;28;20450;-74
2022/12/22 08:25:32;;;;;;;60.80;3.47;;;;;;;;;;5012777;28;20456;-74
2022/12/22 08:28:00;;;;;;;59.97;3.47;;;;;;;;;;5012593;28;20491;-74
2022/12/22 08:30:27;;;;;;;62.47;4.00;;;;;;;;;;5011767;28;20477;-74
2022/12/22 08:32:55;;;;;;;64.17;4.00;;;;;;;;;;5012811;28;20459;-74
2022/12/22 08:35:23;;;;;;;65.00;4.07;;;;;;;;;;5012972;28;20453;-74
2022/12/22 08:37:51;;;;;;;60.23;3.50;;;;;;;;;;5012471;28;20454;-74
2022/12/22 08:40:20;;;;;;;61.77;3.93;;;;;;;;;;5011801;28;20556;-74
2022/12/22 08:42:48;;;;;;;62.83;4.13;;;;;;;;;;5012650;28;20454;-74
2022/12/22 08:45:15;;;;;;;61.47;3.30;;;;;;;;;;5012826;28;20445;-74
2022/12/22 08:47:42;;;;;;;62.47;3.47;;;;;;;;;;5012938;28;20503;-74
2022/12/22 08:50:11;;;;;;;63.40;4.07;;;;;;;;;;5011934;28;20450;-74
2022/12/22 08:52:38;;;;;;;60.77;3.77;;;;;;;;;;5012724;28;20456;-74
2022/12/22 08:55:06;;;;;;;61.63;3.90;;;;;;;;;;5012653;28;20456;-74
2022/12/22 08:57:33;;;;;;;65.57;3.90;;;;;;;;;;5012389;28;20527;-74
2022/12/22 09:00:00;;;;;;;64.37;4.50;;;;;;;;;;5011806;28;20473;-74
2022/12/22 09:02:27;;;;;;;60.67;4.37;;;;;;;;;;5012568;28;20464;-74
2022/12/22 09:04:54;;;;;;;64.10;4.57;;;;;;;;;;5012397;28;20457;-74
2022/12/22 09:07:23;;;;;;;65.70;5.03;;;;;;;;;;5012618;28;20853;-74
2022/12/22 09:09:50;;;;;;;62.53;4.30;;;;;;;;;;5012083;28;20464;-74
2022/12/22 09:12:17;;;;;;;66.50;4.17;;;;;;;;;;5012238;28;20461;-73
2022/12/22 09:14:44;;;;;;;61.70;4.67;;;;;;;;;;5012510;28;20450;-74
2022/12/22 09:17:11;;;;;;;66.40;5.93;;;;;;;;;;5012696;28;20450;-74
2022/12/22 09:19:38;;;;;;;66.17;5.87;;;;;;;;;;5011674;28;20446;-74
2022/12/22 09:22:05;;;;;;;65.47;4.90;;;;;;;;;;5012093;28;20474;-73
2022/12/22 09:24:34;;;;;;;61.00;4.10;;;;;;;;;;5012206;28;20973;-75
2022/12/22 09:27:02;;;;;;;63.97;4.43;;;;;;;;;;5012549;28;20496;-75
2022/12/22 09:29:29;;;;;;;65.53;5.40;;;;;;;;;;5011789;28;20454;-77
2022/12/22 09:31:56;;;;;;;62.77;4.13;;;;;;;;;;5012182;28;20478;-76
2022/12/22 09:34:23;;;;;;;66.57;5.23;;;;;;;;;;5012510;28;20461;-75
2022/12/22 09:36:50;;;;;;;63.00;3.83;;;;;;;;;;5012691;28;20442;-75
2022/12/22 09:39:17;;;;;;;64.87;3.77;;;;;;;;;;5011314;28;20450;-75
2022/12/22 09:41:48;;;;;;;61.90;3.97;;;;;;;;;;5012593;28;20466;-74
2022/12/22 09:44:17;;;;;;;69.03;5.10;;;;;;;;;;5012309;28;20508;-74
2022/12/22 09:46:44;;;;;;;62.83;3.50;;;;;;;;;;5012205;28;20859;-75
2022/12/22 09:49:14;;;;;;;62.83;4.50;;;;;;;;;;5013870;28;20454;-75
2022/12/22 09:51:43;;;;;;;63.23;4.80;;;;;;;;;;5015759;28;21053;-75
2022/12/22 09:54:11;;;;;;;60.97;4.07;;;;;;;;;;5016295;28;20453;-75
2022/12/22 09:56:38;;;;;;;61.40;3.80;;;;;;;;;;5016040;28;20452;-76
2022/12/22 09:59:11;;;;;;;62.77;4.47;;;;;;;;;;5015036;28;20468;-76
2022/12/22 10:01:41;;;;;;;61.50;3.77;;;;;;;;;;5015908;28;20861;-76
2022/12/22 10:04:13;;;;;;;63.67;4.47;;;;;;;;;;5015673;28;20457;-76
2022/12/22 10:06:44;;;;;;;61.10;3.33;;;;;;;;;;5015797;28;20487;-76
2022/12/22 10:09:15;;;;;;;62.67;3.70;;;;;;;;;;5015049;28;20457;-77
2022/12/22 10:11:50;;;;;;;62.90;4.20;;;;;;;;;;5015676;28;20484;-76
2022/12/22 10:14:18;;;;;;;61.90;4.10;;;;;;;;;;5015449;28;20464;-76
2022/12/22 10:16:45;;;;;;;61.67;3.90;;;;;;;;;;5015195;28;20879;-76
2022/12/22 10:19:14;;;;;;;60.50;3.93;;;;;;;;;;5014725;28;20446;-76
2022/12/22 10:21:41;;;;;;;63.07;4.07;;;;;;;;;;5015203;28;20466;-75
2022/12/22 10:24:16;;;;;;;71.17;5.90;;;;;;;;;;5015522;28;20456;-76
2022/12/22 10:26:43;;;;;;;62.97;4.43;;;;;;;;;;5016998;28;20449;-77
2022/12/22 10:29:12;;;;;;;62.13;4.43;;;;;;;;;;5015553;28;20462;-76
2022/12/22 10:31:57;;;;;;;64.37;4.30;;;;;;;;;;5015234;28;20994;-76
2022/12/22 10:34:24;;;;;;;62.97;4.40;;;;;;;;;;5014918;28;21001;-76
2022/12/22 10:36:52;;;;;;;61.57;3.60;;;;;;;;;;5014988;28;20454;-77
2022/12/22 10:39:21;;;;;;;61.03;3.70;;;;;;;;;;5014356;28;20446;-76
2022/12/22 10:41:50;;;;;;;62.33;4.27;;;;;;;;;;5015052;28;20846;-77
2022/12/22 10:44:20;;;;;;;61.70;4.17;;;;;;;;;;5014904;28;20545;-76
2022/12/22 10:46:50;;;;;;;60.63;3.70;;;;;;;;;;5014704;28;20801;-76
2022/12/22 10:49:19;;;;;;;62.60;4.13;;;;;;;;;;5013689;28;20460;-76
2022/12/22 10:51:48;;;;;;;59.80;3.90;;;;;;;;;;5014356;28;20492;-75
2022/12/22 10:54:25;;;;;;;61.70;3.50;;;;;;;;;;5014649;28;20450;-75
2022/12/22 10:56:59;;;;;;;62.37;3.87;;;;;;;;;;5014651;28;20457;-76
2022/12/22 10:59:27;;;;;;;61.30;3.97;;;;;;;;;;5013771;28;20462;-76
2022/12/22 11:01:55;;;;;;;60.97;3.70;;;;;;;;;;5014530;28;20486;-77
2022/12/22 11:04:23;;;;;;;62.97;4.30;;;;;;;;;;5014660;28;20454;-76
2022/12/22 11:06:51;;;;;;;63.53;3.83;;;;;;;;;;5014704;28;20542;-75
2022/12/22 11:09:18;;;;;;;64.63;3.53;;;;;;;;;;5014135;28;20554;-77
2022/12/22 11:11:50;;;;;;;60.57;3.07;;;;;;;;;;5014397;28;20470;-76
2022/12/22 11:14:24;;;;;;;62.73;3.90;;;;;;;;;;5014481;28;20947;-76
2022/12/22 11:16:52;;;;;;;60.83;3.70;;;;;;;;;;5014410;28;20453;-77
2022/12/22 11:19:33;;;;;;;59.90;3.00;;;;;;;;;;5013219;28;20550;-76
2022/12/22 11:22:03;;;;;;;61.70;3.67;;;;;;;;;;5015450;28;20474;-77
2022/12/22 11:24:36;;;;;;;60.27;3.47;;;;;;;;;;5015053;28;20939;-76
2022/12/22 11:27:08;;;;;;;60.33;4.10;;;;;;;;;;5014447;28;20454;-74
2022/12/22 11:29:52;;;;;;;62.03;4.10;;;;;;;;;;5012933;28;20454;-74
2022/12/22 11:32:27;;;;;;;59.90;3.50;;;;;;;;;;5013898;28;20464;-75
2022/12/22 11:34:58;;;;;;;58.97;3.23;;;;;;;;;;5014305;28;20458;-76
2022/12/22 11:37:29;;;;;;;63.30;3.40;;;;;;;;;;5013905;28;20457;-75
2022/12/22 11:39:58;;;;;;;61.83;3.80;;;;;;;;;;5013049;28;20446;-75
2022/12/22 11:42:34;;;;;;;62.40;3.40;;;;;;;;;;5014053;28;20450;-75
2022/12/22 11:45:07;;;;;;;59.97;2.97;;;;;;;;;;5013761;28;20450;-75
2022/12/22 11:47:38;;;;;;;60.83;3.10;;;;;;;;;;5013524;28;20482;-75
2022/12/22 11:50:17;;;;;;;59.17;3.20;;;;;;;;;;5012577;28;20450;-75
2022/12/22 11:52:54;;;;;;;58.97;3.20;;;;;;;;;;5013665;28;20803;-75
2022/12/22 11:55:25;;;;;;;61.87;3.57;;;;;;;;;;5013503;28;20454;-74
2022/12/22 11:57:59;;;;;;;59.17;3.23;;;;;;;;;;5013294;28;20450;-74
2022/12/22 12:00:26;;;;;;;58.40;3.17;;;;;;;;;;5012667;28;20474;-75
2022/12/22 12:03:21;;;;;;;58.50;3.10;;;;;;;;;;5013119;28;20450;-75
2022/12/22 12:06:05;;;;;;;58.60;2.90;;;;;;;;;;5013203;28;20966;-75
2022/12/22 12:08:38;;;;;;;60.53;3.47;;;;;;;;;;5012551;28;20489;-75
2022/12/22 12:11:16;;;;;;;58.87;3.77;;;;;;;;;;5012919;28;20489;-75
2022/12/22 12:13:49;;;;;;;59.70;3.53;;;;;;;;;;5013319;28;20536;-76
2022/12/22 12:16:18;;;;;;;60.87;3.07;;;;;;;;;;5013222;28;20472;-76
2022/12/22 12:19:00;;;;;;;59.90;3.20;;;;;;;;;;5012264;28;20813;-75
2022/12/22 12:21:29;;;;;;;57.43;3.17;;;;;;;;;;5013130;28;20470;-75
2022/12/22 12:24:07;;;;;;;59.60;2.90;;;;;;;;;;5013125;28;21187;-75
2022/12/22 12:26:38;;;;;;;57.97;3.00;;;;;;;;;;5013073;28;20449;-75
2022/12/22 12:29:14;;;;;;;58.30;2.90;;;;;;;;;;5012168;28;20494;-75
2022/12/22 12:31:42;;;;;;;58.93;3.10;;;;;;;;;;5012861;28;20477;-76
2022/12/22 12:34:11;;;;;;;58.50;3.40;;;;;;;;;;5012649;28;20450;-76
2022/12/22 12:36:44;;;;;;;59.40;3.23;;;;;;;;;;5013264;28;20457;-75
2022/12/22 12:39:15;;;;;;;59.07;2.80;;;;;;;;;;5011965;28;20442;-75
2022/12/22 12:41:48;;;;;;;58.40;2.93;;;;;;;;;;5012800;28;20561;-76
2022/12/22 12:44:16;;;;;;;59.00;2.90;;;;;;;;;;5012604;28;20454;-76
2022/12/22 12:46:54;;;;;;;58.03;3.20;;;;;;;;;;5012713;28;20454;-75
2022/12/22 12:49:45;;;;;;;57.90;2.87;;;;;;;;;;5012019;28;20573;-76
2022/12/22 12:52:14;;;;;;;59.50;3.27;;;;;;;;;;4957142;28;20873;-76
2022/12/22 12:54:41;;;;;;;59.93;3.00;;;;;;;;;;5012697;28;20453;-76
2022/12/22 12:57:26;;;;;;;61.60;2.83;;;;;;;;;;5015908;28;20451;-75
2022/12/22 12:59:54;;;;;;;60.30;3.57;;;;;;;;;;5031666;28;20451;-74
2022/12/22 13:02:32;;;;;;;64.70;2.90;;;;;;;;;;5034431;28;20812;-76
2022/12/22 13:05:02;;;;;;;58.60;2.80;;;;;;;;;;5032614;28;20452;-75
2022/12/22 13:07:48;;;;;;;59.87;2.73;;;;;;;;;;5032102;28;20548;-76
2022/12/22 13:10:21;;;;;;;62.00;3.10;;;;;;;;;;5031412;28;20515;-76
2022/12/22 13:12:50;;;;;;;58.70;2.53;;;;;;;;;;5032089;28;20449;-76
2022/12/22 13:15:31;;;;;;;60.87;3.40;;;;;;;;;;5032135;28;20458;-76
2022/12/22 13:17:58;;;;;;;59.30;2.80;;;;;;;;;;5031955;28;20452;-76
2022/12/22 13:20:27;;;;;;;59.80;3.10;;;;;;;;;;5031591;28;21005;-76
2022/12/22 13:22:55;;;;;;;60.63;3.17;;;;;;;;;;5032674;28;20468;-76
2022/12/22 13:25:25;;;;;;;58.77;2.80;;;;;;;;;;5036320;28;20832;-76
2022/12/22 13:27:52;;;;;;;60.00;3.10;;;;;;;;;;5036096;28;20485;-76
2022/12/22 13:30:20;;;;;;;58.30;2.90;;;;;;;;;;5035085;28;20483;-76
2022/12/22 13:32:49;;;;;;;59.17;2.90;;;;;;;;;;5036071;28;20453;-76
2022/12/22 13:35:18;;;;;;;59.70;3.10;;;;;;;;;;5036065;28;20477;-76
2022/12/22 13:37:47;;;;;;;59.83;3.07;;;;;;;;;;5036039;28;20463;-76
2022/12/22 13:40:16;;;;;;;61.53;3.00;;;;;;;;;;5034996;28;20843;-76
2022/12/22 13:42:46;;;;;;;59.27;3.00;;;;;;;;;;5035588;28;20453;-76
2022/12/22 13:45:16;;;;;;;59.80;3.17;;;;;;;;;;5035587;28;20812;-76
2022/12/22 13:47:44;;;;;;;59.37;3.00;;;;;;;;;;5035639;28;20960;-76
2022/12/22 13:50:17;;;;;;;58.30;3.00;;;;;;;;;;5034900;28;20469;-76
2022/12/22 13:52:45;;;;;;;59.77;2.90;;;;;;;;;;5035805;28;20445;-76
2022/12/22 13:55:14;;;;;;;61.03;2.97;;;;;;;;;;5035477;28;20941;-76
2022/12/22 13:57:41;;;;;;;60.30;3.13;;;;;;;;;;5035365;28;20547;-75
2022/12/22 14:00:19;;;;;;;61.83;2.70;;;;;;;;;;5034762;28;20819;-75
2022/12/22 14:02:46;;;;;;;59.07;3.10;;;;;;;;;;5035588;28;20457;-75
2022/12/22 14:05:14;;;;;;;58.50;2.80;;;;;;;;;;5035310;28;20457;-75
2022/12/22 14:07:41;;;;;;;59.70;3.10;;;;;;;;;;5035248;28;20453;-75
2022/12/22 14:10:09;;;;;;;60.33;3.17;;;;;;;;;;5034182;28;20448;-75
2022/12/22 14:12:38;;;;;;;59.20;3.13;;;;;;;;;;5035339;28;20548;-75
2022/12/22 14:15:09;;;;;;;61.27;3.30;;;;;;;;;;5035048;28;20456;-75
2022/12/22 14:17:40;;;;;;;60.60;3.40;;;;;;;;;;5035343;28;20445;-76
2022/12/22 14:20:13;;;;;;;59.00;3.60;;;;;;;;;;5034194;28;20848;-76
2022/12/22 14:22:44;;;;;;;59.60;3.17;;;;;;;;;;5035408;28;20459;-76
2022/12/22 14:25:15;;;;;;;58.67;3.03;;;;;;;;;;5035049;28;20985;-76
2022/12/22 14:27:44;;;;;;;59.90;3.23;;;;;;;;;;5034932;28;20449;-75
2022/12/22 14:30:16;;;;;;;58.37;3.30;;;;;;;;;;5034040;28;20469;-76
2022/12/22 14:32:45;;;;;;;58.87;3.03;;;;;;;;;;5034875;28;20445;-75
2022/12/22 14:35:27;;;;;;;58.83;2.87;;;;;;;;;;5034009;28;20449;-75
2022/12/22 14:37:55;;;;;;;58.93;2.80;;;;;;;;;;5033045;28;20540;-76
2022/12/22 14:40:29;;;;;;;60.13;3.20;;;;;;;;;;5033855;28;21007;-75
2022/12/22 14:42:58;;;;;;;58.37;2.87;;;;;;;;;;5034718;28;20971;-76
2022/12/22 14:45:25;;;;;;;60.47;3.60;;;;;;;;;;5035023;28;20453;-76
2022/12/22 14:47:55;;;;;;;59.77;3.67;;;;;;;;;;5034803;28;20840;-76
2022/12/22 14:50:23;;;;;;;60.87;3.30;;;;;;;;;;5034660;28;20944;-76
2022/12/22 14:52:51;;;;;;;60.97;3.47;;;;;;;;;;5035727;28;20487;-76
2022/12/22 14:55:23;;;;;;;62.73;3.10;;;;;;;;;;5035872;28;20455;-76
2022/12/22 14:57:52;;;;;;;60.10;3.50;;;;;;;;;;5036035;28;20452;-75
2022/12/22 15:00:33;;;;;;;60.57;3.20;;;;;;;;;;5034980;28;20477;-75
2022/12/22 15:03:03;;;;;;;63.07;4.10;;;;;;;;;;5035620;28;20456;-76
2022/12/22 15:05:34;;;;;;;61.07;3.53;;;;;;;;;;5035738;28;20453;-76
2022/12/22 15:08:01;;;;;;;60.27;3.97;;;;;;;;;;5034821;28;20489;-76
2022/12/22 15:10:30;;;;;;;61.77;3.97;;;;;;;;;;5034221;28;20461;-76
2022/12/22 15:12:59;;;;;;;65.17;4.63;;;;;;;;;;5034564;28;20453;-76
2022/12/22 15:15:26;;;;;;;61.07;3.83;;;;;;;;;;5033882;28;20450;-76
2022/12/22 15:17:53;;;;;;;62.63;5.03;;;;;;;;;;5033797;28;20973;-75
2022/12/22 15:20:23;;;;;;;63.13;3.73;;;;;;;;;;5033133;28;20815;-75
2022/12/22 15:22:50;;;;;;;61.77;4.10;;;;;;;;;;5033663;28;20457;-75
2022/12/22 15:25:19;;;;;;;62.20;4.47;;;;;;;;;;5033621;28;20954;-75
2022/12/22 15:27:46;;;;;;;62.40;4.47;;;;;;;;;;5033676;28;20950;-75
2022/12/22 15:30:16;;;;;;;61.70;4.20;;;;;;;;;;5032595;28;20504;-75
2022/12/22 15:32:43;;;;;;;62.00;3.60;;;;;;;;;;5033597;28;20968;-75
2022/12/22 15:35:18;;;;;;;61.87;4.20;;;;;;;;;;5033493;28;20457;-75
2022/12/22 15:37:46;;;;;;;62.17;4.00;;;;;;;;;;5033386;28;20456;-75
2022/12/22 15:40:18;;;;;;;62.97;3.67;;;;;;;;;;5032566;28;21005;-75
2022/12/22 15:42:45;;;;;;;65.57;4.60;;;;;;;;;;5033368;28;20457;-75
2022/12/22 15:45:13;;;;;;;62.93;4.57;;;;;;;;;;5033051;28;20459;-75
2022/12/22 15:47:40;;;;;;;62.43;4.70;;;;;;;;;;5033086;28;21003;-75
2022/12/22 15:50:08;;;;;;;59.17;3.80;;;;;;;;;;5032185;28;20572;-75
2022/12/22 15:52:35;;;;;;;61.50;3.87;;;;;;;;;;5033435;28;20449;-75
2022/12/22 15:55:04;;;;;;;61.80;3.43;;;;;;;;;;5033227;28;20461;-75
2022/12/22 15:57:31;;;;;;;64.83;3.97;;;;;;;;;;5033287;28;20835;-75
2022/12/22 15:59:58;;;;;;;61.50;3.70;;;;;;;;;;5032194;28;20453;-75
2022/12/22 16:02:25;;;;;;;65.60;4.47;;;;;;;;;;5032941;28;20456;-75
2022/12/22 16:04:52;;;;;;;59.20;3.50;;;;;;;;;;5033169;28;20476;-75
2022/12/22 16:07:19;;;;;;;65.07;3.80;;;;;;;;;;5033056;28;20449;-75
2022/12/22 16:09:47;;;;;;;61.47;4.30;;;;;;;;;;5032128;28;20485;-75
2022/12/22 16:12:17;;;;;;;59.70;3.80;;;;;;;;;;5032835;28;20526;-75
2022/12/22 16:14:45;;;;;;;61.53;4.27;;;;;;;;;;5032807;28;20518;-75
2022/12/22 16:17:18;;;;;;;64.70;4.23;;;;;;;;;;5032554;28;20467;-75
2022/12/22 16:19:45;;;;;;;62.47;4.13;;;;;;;;;;5032226;28;20861;-75
2022/12/22 16:22:12;;;;;;;63.50;3.87;;;;;;;;;;5032477;28;20504;-75
2022/12/22 16:24:41;;;;;;;62.43;3.80;;;;;;;;;;5032644;28;20536;-75
2022/12/22 16:27:10;;;;;;;60.77;3.73;;;;;;;;;;5032609;28;20445;-75
2022/12/22 16:29:39;;;;;;;62.57;3.90;;;;;;;;;;5031528;28;20485;-75
2022/12/22 16:32:14;;;;;;;62.07;4.20;;;;;;;;;;5032440;28;20484;-75
2022/12/22 16:34:42;;;;;;;63.77;4.30;;;;;;;;;;5032573;28;20797;-75
2022/12/22 16:37:09;;;;;;;62.20;3.73;;;;;;;;;;5032531;28;20441;-75
2022/12/22 16:39:36;;;;;;;61.30;4.10;;;;;;;;;;5031595;28;20449;-75
2022/12/22 16:42:03;;;;;;;68.20;4.50;;;;;;;;;;5032001;28;20475;-75
2022/12/22 16:44:30;;;;;;;64.63;4.70;;;;;;;;;;5032394;28;20450;-75
2022/12/22 16:46:58;;;;;;;62.40;4.70;;;;;;;;;;5032031;28;20982;-75
2022/12/22 16:49:26;;;;;;;61.87;4.43;;;;;;;;;;5031379;28;20857;-75
2022/12/22 16:51:53;;;;;;;62.27;4.23;;;;;;;;;;5031985;28;20469;-75
2022/12/22 16:54:20;;;;;;;63.10;5.33;;;;;;;;;;5031942;28;20456;-75
2022/12/22 16:56:50;;;;;;;63.30;5.07;;;;;;;;;;5031778;28;20457;-75
2022/12/22 16:59:17;;;;;;;70.43;5.43;;;;;;;;;;5031414;28;20453;-75
2022/12/22 17:01:47;;;;;;;68.50;5.70;;;;;;;;;;5032161;28;20931;-75
2022/12/22 17:04:17;;;;;;;62.30;4.70;;;;;;;;;;5031939;28;20544;-75
2022/12/22 17:06:47;;;;;;;62.67;4.70;;;;;;;;;;5032142;28;20453;-75
2022/12/22 17:09:16;;;;;;;65.13;5.77;;;;;;;;;;5030915;28;20490;-75
2022/12/22 17:11:44;;;;;;;68.30;6.13;;;;;;;;;;5031937;28;20527;-75
2022/12/22 17:14:16;;;;;;;66.83;5.87;;;;;;;;;;5031985;28;20445;-75
2022/12/22 17:16:43;;;;;;;65.30;5.20;;;;;;;;;;5031916;28;20535;-75
2022/12/22 17:19:11;;;;;;;66.73;7.17;;;;;;;;;;5031116;28;20445;-75
2022/12/22 17:21:39;;;;;;;66.23;5.03;;;;;;;;;;5031623;28;20466;-75
2022/12/22 17:24:06;;;;;;;65.10;5.27;;;;;;;;;;5031974;28;20543;-75
2022/12/22 17:26:34;;;;;;;63.23;4.80;;;;;;;;;;5031805;28;20453;-75
2022/12/22 17:29:02;;;;;;;63.30;5.27;;;;;;;;;;5030822;28;20480;-75
2022/12/22 17:31:29;;;;;;;61.30;4.40;;;;;;;;;;5031527;28;20569;-75
2022/12/22 17:33:57;;;;;;;66.67;5.83;;;;;;;;;;5031746;28;20449;-75
2022/12/22 17:36:29;;;;;;;69.27;6.60;;;;;;;;;;5031634;28;20449;-75
2022/12/22 17:38:57;;;;;;;68.13;5.77;;;;;;;;;;5030878;28;20980;-75
2022/12/22 17:41:24;;;;;;;62.93;4.97;;;;;;;;;;5031706;28;20855;-75
2022/12/22 17:43:52;;;;;;;72.43;5.77;;;;;;;;;;5031680;28;20824;-75
2022/12/22 17:46:20;;;;;;;71.63;6.57;;;;;;;;;;5031641;28;20449;-75
2022/12/22 17:48:48;;;;;;;67.47;6.10;;;;;;;;;;5030714;28;20464;-75
2022/12/22 17:51:16;;;;;;;67.47;5.70;;;;;;;;;;5031281;28;20461;-75
2022/12/22 17:53:44;;;;;;;70.80;6.10;;;;;;;;;;5031681;28;20453;-75
2022/12/22 17:56:14;;;;;;;63.93;5.80;;;;;;;;;;5031507;28;20455;-75
2022/12/22 17:58:42;;;;;;;68.27;6.60;;;;;;;;;;5030707;28;20453;-75
2022/12/22 18:01:13;;;;;;;65.33;5.30;;;;;;;;;;5031256;28;20473;-75
2022/12/22 18:03:40;;;;;;;65.93;5.77;;;;;;;;;;5031671;28;20828;-75
2022/12/22 18:06:07;;;;;;;64.23;5.70;;;;;;;;;;5031602;28;20451;-75
2022/12/22 18:08:34;;;;;;;73.00;7.93;;;;;;;;;;5030750;28;20828;-75
2022/12/22 18:11:01;;;;;;;68.87;6.13;;;;;;;;;;5034861;28;20501;-75
2022/12/22 18:13:30;;;;;;;73.43;5.87;;;;;;;;;;5035317;28;20457;-75
2022/12/22 18:15:57;;;;;;;70.13;5.97;;;;;;;;;;5035107;28;20962;-75
2022/12/22 18:18:24;;;;;;;69.40;6.70;;;;;;;;;;5034910;28;20515;-75
2022/12/22 18:20:51;;;;;;;69.53;5.77;;;;;;;;;;5034397;28;20473;-75